Flight Track Log - Related Links

Times and Time Zones

All times are in EST time to prevent confusion due to time zone crossing. See the KAP550 flight status page for this flight to view local times or setup timezone preferences in your user account.

Time Position Orientation Groundspeed Altitude Reporting Facility
EST Latitude Longitude Course Direction KTS MPH feet Rate Location/Type
Wed 06:14:58 PM 42.7367 -73.8244 272° West 123 142 2,600  Level Boston Center
Wed 06:15:13 PM 42.7475 -73.8294 341° North 125 144 3,100 1,700 Climbing Boston Center
Wed 06:15:58 PM 42.7700 -73.8414 339° North 112 129 4,300 1,377 Climbing Boston Center
Wed 06:16:14 PM 42.7753 -73.8431 347° North 106 122 4,500 885 Climbing Boston Center
Wed 06:16:59 PM 42.7947 -73.8586 330° Northwest 95 109 5,200 885 Climbing Boston Center
Wed 06:17:15 PM 42.8006 -73.8603 348° North 103 119 5,400 800 Climbing Boston Center
Wed 06:17:59 PM 42.8225 -73.8711 340° North 105 121 6,000 871 Climbing Boston Center
Wed 06:18:17 PM 42.8306 -73.8739 346° North 106 122 6,300 787 Climbing Boston Center
Wed 06:19:00 PM 42.8503 -73.8833 341° North 109 125 6,800 787 Climbing Boston Center
Wed 06:19:18 PM 42.8600 -73.8853 352° North 109 125 7,100 716 Climbing Boston Center
Wed 06:20:07 PM 42.8822 -73.8972 339° North 113 130 7,600 689 Climbing Boston Center
Wed 06:20:19 PM 42.8900 -73.8994 348° North 113 130 7,800 900 Climbing Boston Center
Wed 06:21:07 PM 42.9161 -73.9117 341° North 121 139 8,500 774 Climbing Boston Center
Wed 06:21:21 PM 42.9222 -73.9133 349° North 120 138 8,600 689 Climbing Boston Center
Wed 06:22:08 PM 42.9500 -73.9261 341° North 123 142 9,200 787 Climbing Boston Center
Wed 06:22:22 PM 42.9572 -73.9294 341° North 124 143 9,400 689 Climbing Boston Center
Wed 06:23:09 PM 42.9839 -73.9406 343° North 126 145 9,900 590 Climbing Boston Center
Wed 06:23:23 PM 42.9908 -73.9419 352° North 125 144 10,000 200 Climbing Boston Center
Wed 06:24:09 PM 43.0197 -73.9558 341° North 138 159 10,100 98 Climbing Boston Center
Wed 06:24:24 PM 43.0294 -73.9603 342° North 145 167 10,100  Level Boston Center
Wed 06:25:26 PM 43.0739 -73.9800 342° North 166 191 10,100  Level Boston Center
Wed 06:26:27 PM 43.1236 -74.0033 341° North 175 201 10,100  Level Boston Center
Wed 06:27:28 PM 43.1686 -74.0233 342° North 169 194 10,100  Level Boston Center
Wed 06:28:29 PM 43.2119 -74.0439 341° North 166 191 10,100  Level Boston Center
Wed 06:29:31 PM 43.2542 -74.0639 341° North 160 184 10,100  Level Boston Center
Wed 06:30:32 PM 43.3008 -74.0836 343° North 163 188 10,100  Level Boston Center
Wed 06:31:33 PM 43.3431 -74.1028 342° North 161 185 10,100  Level Boston Center
Wed 06:32:35 PM 43.3847 -74.1233 340° North 160 184 10,100  Level Boston Center
Wed 06:33:36 PM 43.4153 -74.1375 341° North 161 185 10,100  Level Boston Center
Wed 06:34:37 PM 43.4661 -74.1589 343° North 159 183 10,100  Level Boston Center
Wed 06:35:38 PM 43.5086 -74.1786 341° North 161 185 10,100  Level Boston Center
Wed 06:36:40 PM 43.5589 -74.2014 342° North 160 184 10,100  Level Boston Center
Wed 06:37:41 PM 43.6025 -74.2222 341° North 164 189 10,100  Level Boston Center
Wed 06:38:42 PM 43.6453 -74.2408 343° North 163 188 10,100  Level Boston Center
Wed 06:39:43 PM 43.6872 -74.2597 342° North 160 184 10,100  Level Boston Center
Wed 06:40:45 PM 43.7292 -74.2794 341° North 160 184 10,100  Level Boston Center
Wed 06:41:46 PM 43.7722 -74.2994 341° North 161 185 10,100  Level Boston Center
Wed 06:42:47 PM 43.8136 -74.3192 341° North 160 184 10,100  Level Boston Center
Wed 06:43:48 PM 43.8556 -74.3392 341° North 159 183 10,100  Level Boston Center
Wed 06:44:49 PM 43.8981 -74.3581 342° North 161 185 10,100  Level Boston Center
Wed 06:45:50 PM 43.9314 -74.3747 340° North 160 184 10,100  Level Boston Center
Wed 06:46:52 PM 43.9897 -74.4019 341° North 158 182 10,100  Level Boston Center
Wed 06:47:53 PM 44.0314 -74.4206 342° North 159 183 10,100  Level Boston Center
Wed 06:48:54 PM 44.0725 -74.4369 344° North 157 181 10,100  Level Boston Center
Wed 06:49:56 PM 44.1142 -74.4569 341° North 157 181 10,100  Level Boston Center
Wed 06:50:57 PM 44.1561 -74.4775 341° North 159 183 10,100 49 Level Boston Center
Wed 06:51:58 PM 44.1978 -74.4958 342° North 158 182 10,200 49 Climbing Boston Center
Wed 06:52:59 PM 44.2392 -74.5153 341° North 159 183 10,200  Level Boston Center
Wed 06:54:01 PM 44.2803 -74.5350 341° North 157 181 10,200  Level Boston Center
Wed 06:55:02 PM 44.3219 -74.5542 342° North 158 182 10,200  Level Boston Center
Wed 06:56:03 PM 44.3722 -74.5786 341° North 160 184 10,200  Level Boston Center
Wed 06:57:04 PM 44.4147 -74.5969 343° North 160 184 10,200  Level Boston Center
Wed 06:58:18 PM 44.4564 -74.6164 342° North 159 183 10,200 -356 Level Boston Center
Wed 06:59:19 PM 44.5092 -74.6433 340° North 166 191 9,400 -787 Descending Boston Center
Wed 07:00:20 PM 44.5567 -74.6642 343° North 176 203 8,600 -780 Descending Boston Center
Wed 07:01:22 PM 44.6036 -74.6853 342° North 178 205 7,800 -829 Descending Boston Center
Wed 07:02:23 PM 44.6489 -74.7108 338° Northwest 176 203 6,900 -934 Descending Boston Center
Wed 07:03:24 PM 44.6961 -74.7303 344° North 176 203 5,900 -984 Descending Boston Center

Login

Don't have an account? Register now (free) for customized features, flight alerts, and more!